sensor_id;sensor_type;location;lat;lon;timestamp;temperature;humidity
80258;DHT22;69565;37.974;23.708;2023-04-25T00:01:48;23.30;41.00
80258;DHT22;69565;37.974;23.708;2023-04-25T00:04:14;23.40;41.00
80258;DHT22;69565;37.974;23.708;2023-04-25T00:06:40;23.40;40.90
80258;DHT22;69565;37.974;23.708;2023-04-25T00:09:06;23.40;40.70
80258;DHT22;69565;37.974;23.708;2023-04-25T00:11:36;23.40;40.60
80258;DHT22;69565;37.974;23.708;2023-04-25T00:14:03;23.40;40.50
80258;DHT22;69565;37.974;23.708;2023-04-25T00:16:29;23.40;40.40
80258;DHT22;69565;37.974;23.708;2023-04-25T00:18:59;23.50;40.40
80258;DHT22;69565;37.974;23.708;2023-04-25T00:21:24;23.50;40.20
80258;DHT22;69565;37.974;23.708;2023-04-25T00:23:52;23.50;40.20
80258;DHT22;69565;37.974;23.708;2023-04-25T00:26:19;23.50;40.00
80258;DHT22;69565;37.974;23.708;2023-04-25T00:28:46;23.50;39.90
80258;DHT22;69565;37.974;23.708;2023-04-25T00:31:12;23.50;39.70
80258;DHT22;69565;37.974;23.708;2023-04-25T00:33:38;23.40;39.50
80258;DHT22;69565;37.974;23.708;2023-04-25T00:36:04;23.50;39.70
80258;DHT22;69565;37.974;23.708;2023-04-25T00:38:29;23.40;39.50
80258;DHT22;69565;37.974;23.708;2023-04-25T00:40:55;23.50;39.50
80258;DHT22;69565;37.974;23.708;2023-04-25T00:43:22;23.40;39.30
80258;DHT22;69565;37.974;23.708;2023-04-25T00:45:48;23.40;39.20
80258;DHT22;69565;37.974;23.708;2023-04-25T00:48:15;23.40;39.20
80258;DHT22;69565;37.974;23.708;2023-04-25T00:50:41;23.40;39.20
80258;DHT22;69565;37.974;23.708;2023-04-25T00:53:08;23.40;39.10
80258;DHT22;69565;37.974;23.708;2023-04-25T00:55:35;23.40;39.00
80258;DHT22;69565;37.974;23.708;2023-04-25T00:58:01;23.40;38.90
80258;DHT22;69565;37.974;23.708;2023-04-25T01:00:27;23.40;38.90
80258;DHT22;69565;37.974;23.708;2023-04-25T01:02:53;23.40;38.80
80258;DHT22;69565;37.974;23.708;2023-04-25T01:05:19;23.40;38.70
80258;DHT22;69565;37.974;23.708;2023-04-25T01:07:45;23.40;38.60
80258;DHT22;69565;37.974;23.708;2023-04-25T01:10:11;23.40;38.60
80258;DHT22;69565;37.974;23.708;2023-04-25T01:12:36;23.40;38.60
80258;DHT22;69565;37.974;23.708;2023-04-25T01:15:02;23.40;38.70
80258;DHT22;69565;37.974;23.708;2023-04-25T01:17:28;23.40;38.60
80258;DHT22;69565;37.974;23.708;2023-04-25T01:19:54;23.40;38.60
80258;DHT22;69565;37.974;23.708;2023-04-25T01:22:20;23.30;38.30
80258;DHT22;69565;37.974;23.708;2023-04-25T01:24:47;23.30;38.10
80258;DHT22;69565;37.974;23.708;2023-04-25T01:27:12;23.30;39.20
80258;DHT22;69565;37.974;23.708;2023-04-25T01:29:38;23.30;38.10
80258;DHT22;69565;37.974;23.708;2023-04-25T01:32:06;23.30;38.10
80258;DHT22;69565;37.974;23.708;2023-04-25T01:34:31;23.30;38.00
80258;DHT22;69565;37.974;23.708;2023-04-25T01:36:59;23.30;37.90
80258;DHT22;69565;37.974;23.708;2023-04-25T01:39:25;23.30;38.00
80258;DHT22;69565;37.974;23.708;2023-04-25T01:41:51;23.20;37.90
80258;DHT22;69565;37.974;23.708;2023-04-25T01:44:17;23.20;37.90
80258;DHT22;69565;37.974;23.708;2023-04-25T01:46:42;23.20;37.90
80258;DHT22;69565;37.974;23.708;2023-04-25T01:49:08;23.20;37.90
80258;DHT22;69565;37.974;23.708;2023-04-25T01:51:34;23.20;38.00
80258;DHT22;69565;37.974;23.708;2023-04-25T01:54:00;23.30;38.00
80258;DHT22;69565;37.974;23.708;2023-04-25T01:56:33;23.20;37.90
80258;DHT22;69565;37.974;23.708;2023-04-25T01:59:02;23.20;37.90
80258;DHT22;69565;37.974;23.708;2023-04-25T02:01:28;23.20;38.00
80258;DHT22;69565;37.974;23.708;2023-04-25T02:03:54;23.20;37.80
80258;DHT22;69565;37.974;23.708;2023-04-25T02:06:20;23.20;37.80
80258;DHT22;69565;37.974;23.708;2023-04-25T02:08:45;23.20;37.70
80258;DHT22;69565;37.974;23.708;2023-04-25T02:11:11;23.20;37.70
80258;DHT22;69565;37.974;23.708;2023-04-25T02:13:37;23.20;37.60
80258;DHT22;69565;37.974;23.708;2023-04-25T02:16:03;23.20;37.60
80258;DHT22;69565;37.974;23.708;2023-04-25T02:18:28;23.20;37.40
80258;DHT22;69565;37.974;23.708;2023-04-25T02:20:54;23.20;37.40
80258;DHT22;69565;37.974;23.708;2023-04-25T02:23:20;23.20;37.30
80258;DHT22;69565;37.974;23.708;2023-04-25T02:25:46;23.10;37.10
80258;DHT22;69565;37.974;23.708;2023-04-25T02:28:11;23.20;37.10
80258;DHT22;69565;37.974;23.708;2023-04-25T02:30:37;23.20;37.10
80258;DHT22;69565;37.974;23.708;2023-04-25T02:33:03;23.10;36.90
80258;DHT22;69565;37.974;23.708;2023-04-25T02:35:29;23.10;36.90
80258;DHT22;69565;37.974;23.708;2023-04-25T02:37:54;23.10;36.80
80258;DHT22;69565;37.974;23.708;2023-04-25T02:40:20;23.10;36.70
80258;DHT22;69565;37.974;23.708;2023-04-25T02:42:46;23.10;36.60
80258;DHT22;69565;37.974;23.708;2023-04-25T02:45:12;23.10;36.50
80258;DHT22;69565;37.974;23.708;2023-04-25T02:47:37;23.10;36.50
80258;DHT22;69565;37.974;23.708;2023-04-25T02:50:04;23.10;36.50
80258;DHT22;69565;37.974;23.708;2023-04-25T02:52:29;23.10;36.40
80258;DHT22;69565;37.974;23.708;2023-04-25T02:54:55;23.10;36.40
80258;DHT22;69565;37.974;23.708;2023-04-25T02:57:21;23.00;36.30
80258;DHT22;69565;37.974;23.708;2023-04-25T02:59:47;23.00;36.30
80258;DHT22;69565;37.974;23.708;2023-04-25T03:02:13;23.00;36.30
80258;DHT22;69565;37.974;23.708;2023-04-25T03:04:39;23.00;36.20
80258;DHT22;69565;37.974;23.708;2023-04-25T03:07:05;23.00;36.20
80258;DHT22;69565;37.974;23.708;2023-04-25T03:09:30;23.00;36.30
80258;DHT22;69565;37.974;23.708;2023-04-25T03:11:56;23.00;36.30
80258;DHT22;69565;37.974;23.708;2023-04-25T03:14:22;22.90;36.20
80258;DHT22;69565;37.974;23.708;2023-04-25T03:16:47;22.90;36.30
80258;DHT22;69565;37.974;23.708;2023-04-25T03:19:13;23.00;36.40
80258;DHT22;69565;37.974;23.708;2023-04-25T03:21:41;22.90;36.50
80258;DHT22;69565;37.974;23.708;2023-04-25T03:24:07;22.90;37.60
80258;DHT22;69565;37.974;23.708;2023-04-25T03:26:32;22.90;36.60
80258;DHT22;69565;37.974;23.708;2023-04-25T03:28:58;22.90;36.70
80258;DHT22;69565;37.974;23.708;2023-04-25T03:31:24;22.90;36.60
80258;DHT22;69565;37.974;23.708;2023-04-25T03:33:50;22.90;36.70
80258;DHT22;69565;37.974;23.708;2023-04-25T03:36:16;22.80;36.80
80258;DHT22;69565;37.974;23.708;2023-04-25T03:38:41;22.80;36.90
80258;DHT22;69565;37.974;23.708;2023-04-25T03:41:07;22.80;37.00
80258;DHT22;69565;37.974;23.708;2023-04-25T03:43:33;22.80;37.10
80258;DHT22;69565;37.974;23.708;2023-04-25T03:45:59;22.80;37.10
80258;DHT22;69565;37.974;23.708;2023-04-25T03:48:26;22.80;37.10
80258;DHT22;69565;37.974;23.708;2023-04-25T03:50:52;22.80;37.10
80258;DHT22;69565;37.974;23.708;2023-04-25T03:53:18;22.80;37.20
80258;DHT22;69565;37.974;23.708;2023-04-25T03:55:44;22.80;37.20
80258;DHT22;69565;37.974;23.708;2023-04-25T03:58:10;22.80;37.20
80258;DHT22;69565;37.974;23.708;2023-04-25T04:00:36;22.80;37.20
80258;DHT22;69565;37.974;23.708;2023-04-25T04:03:02;22.80;37.40
80258;DHT22;69565;37.974;23.708;2023-04-25T04:05:27;22.80;37.50
80258;DHT22;69565;37.974;23.708;2023-04-25T04:07:54;22.80;37.60
80258;DHT22;69565;37.974;23.708;2023-04-25T04:10:20;22.80;37.70
80258;DHT22;69565;37.974;23.708;2023-04-25T04:12:45;22.80;37.90
80258;DHT22;69565;37.974;23.708;2023-04-25T04:15:11;22.80;38.10
80258;DHT22;69565;37.974;23.708;2023-04-25T04:17:37;22.90;38.00
80258;DHT22;69565;37.974;23.708;2023-04-25T04:20:04;22.90;37.80
80258;DHT22;69565;37.974;23.708;2023-04-25T04:22:29;23.00;37.90
80258;DHT22;69565;37.974;23.708;2023-04-25T04:24:55;23.00;37.90
80258;DHT22;69565;37.974;23.708;2023-04-25T04:27:22;23.10;37.90
80258;DHT22;69565;37.974;23.708;2023-04-25T04:29:48;23.20;37.90
80258;DHT22;69565;37.974;23.708;2023-04-25T04:32:15;23.20;37.90
80258;DHT22;69565;37.974;23.708;2023-04-25T04:34:41;23.30;37.90
80258;DHT22;69565;37.974;23.708;2023-04-25T04:37:07;23.40;37.90
80258;DHT22;69565;37.974;23.708;2023-04-25T04:39:36;23.50;37.70
80258;DHT22;69565;37.974;23.708;2023-04-25T04:42:02;23.60;37.60
80258;DHT22;69565;37.974;23.708;2023-04-25T04:44:29;23.70;37.60
80258;DHT22;69565;37.974;23.708;2023-04-25T04:46:54;23.70;37.40
80258;DHT22;69565;37.974;23.708;2023-04-25T04:49:21;23.80;37.20
80258;DHT22;69565;37.974;23.708;2023-04-25T04:51:46;23.90;37.20
80258;DHT22;69565;37.974;23.708;2023-04-25T04:54:13;24.00;37.00
80258;DHT22;69565;37.974;23.708;2023-04-25T04:56:38;24.00;36.80
80258;DHT22;69565;37.974;23.708;2023-04-25T04:59:04;24.10;36.70
80258;DHT22;69565;37.974;23.708;2023-04-25T05:01:30;24.20;36.50
80258;DHT22;69565;37.974;23.708;2023-04-25T05:03:56;24.30;36.20
80258;DHT22;69565;37.974;23.708;2023-04-25T05:06:26;24.40;36.00
80258;DHT22;69565;37.974;23.708;2023-04-25T05:08:52;24.50;35.90
80258;DHT22;69565;37.974;23.708;2023-04-25T05:11:19;24.50;35.70
80258;DHT22;69565;37.974;23.708;2023-04-25T05:13:44;24.60;35.50
80258;DHT22;69565;37.974;23.708;2023-04-25T05:16:11;24.70;35.20
80258;DHT22;69565;37.974;23.708;2023-04-25T05:18:37;24.80;35.20
80258;DHT22;69565;37.974;23.708;2023-04-25T05:21:03;24.90;34.80
80258;DHT22;69565;37.974;23.708;2023-04-25T05:23:29;25.00;34.50
80258;DHT22;69565;37.974;23.708;2023-04-25T05:25:56;25.10;34.00
80258;DHT22;69565;37.974;23.708;2023-04-25T05:28:22;25.20;33.70
80258;DHT22;69565;37.974;23.708;2023-04-25T05:30:48;25.30;33.30
80258;DHT22;69565;37.974;23.708;2023-04-25T05:33:13;25.40;32.90
80258;DHT22;69565;37.974;23.708;2023-04-25T05:35:40;25.40;32.60
80258;DHT22;69565;37.974;23.708;2023-04-25T05:38:05;25.50;32.20
80258;DHT22;69565;37.974;23.708;2023-04-25T05:40:31;25.50;31.90
80258;DHT22;69565;37.974;23.708;2023-04-25T05:42:57;25.60;31.70
80258;DHT22;69565;37.974;23.708;2023-04-25T05:45:23;25.60;31.60
80258;DHT22;69565;37.974;23.708;2023-04-25T05:47:48;25.80;31.40
80258;DHT22;69565;37.974;23.708;2023-04-25T05:50:14;25.80;31.20
80258;DHT22;69565;37.974;23.708;2023-04-25T05:52:40;25.80;31.00
80258;DHT22;69565;37.974;23.708;2023-04-25T05:55:06;25.90;31.00
80258;DHT22;69565;37.974;23.708;2023-04-25T05:57:31;25.90;30.70
80258;DHT22;69565;37.974;23.708;2023-04-25T05:59:57;26.00;30.70
80258;DHT22;69565;37.974;23.708;2023-04-25T06:02:23;26.00;30.50
80258;DHT22;69565;37.974;23.708;2023-04-25T06:04:52;26.00;30.40
80258;DHT22;69565;37.974;23.708;2023-04-25T06:07:18;26.10;30.30
80258;DHT22;69565;37.974;23.708;2023-04-25T06:09:44;26.10;30.20
80258;DHT22;69565;37.974;23.708;2023-04-25T06:12:10;26.20;30.00
80258;DHT22;69565;37.974;23.708;2023-04-25T06:14:36;26.20;30.00
80258;DHT22;69565;37.974;23.708;2023-04-25T06:17:02;26.20;30.00
80258;DHT22;69565;37.974;23.708;2023-04-25T06:19:35;26.20;29.90
80258;DHT22;69565;37.974;23.708;2023-04-25T06:22:02;26.20;29.90
80258;DHT22;69565;37.974;23.708;2023-04-25T06:24:27;26.20;29.80
80258;DHT22;69565;37.974;23.708;2023-04-25T06:26:54;26.20;29.80
80258;DHT22;69565;37.974;23.708;2023-04-25T06:29:20;26.20;29.70
80258;DHT22;69565;37.974;23.708;2023-04-25T06:31:46;26.30;29.70
80258;DHT22;69565;37.974;23.708;2023-04-25T06:34:12;26.30;29.60
80258;DHT22;69565;37.974;23.708;2023-04-25T06:36:37;26.40;29.60
80258;DHT22;69565;37.974;23.708;2023-04-25T06:39:03;26.50;29.50
80258;DHT22;69565;37.974;23.708;2023-04-25T06:41:29;26.50;29.40
80258;DHT22;69565;37.974;23.708;2023-04-25T06:43:57;26.60;29.30
80258;DHT22;69565;37.974;23.708;2023-04-25T06:46:23;26.70;29.20
80258;DHT22;69565;37.974;23.708;2023-04-25T06:48:49;26.70;29.10
80258;DHT22;69565;37.974;23.708;2023-04-25T06:51:16;26.70;29.10
80258;DHT22;69565;37.974;23.708;2023-04-25T06:53:41;26.70;29.00
80258;DHT22;69565;37.974;23.708;2023-04-25T06:56:07;26.70;29.10
80258;DHT22;69565;37.974;23.708;2023-04-25T06:58:33;26.70;29.10
80258;DHT22;69565;37.974;23.708;2023-04-25T07:00:58;26.70;29.30
80258;DHT22;69565;37.974;23.708;2023-04-25T07:03:24;26.60;29.30
80258;DHT22;69565;37.974;23.708;2023-04-25T07:05:50;26.60;28.90
80258;DHT22;69565;37.974;23.708;2023-04-25T07:08:16;26.50;28.90
80258;DHT22;69565;37.974;23.708;2023-04-25T07:10:42;26.50;28.90
80258;DHT22;69565;37.974;23.708;2023-04-25T07:13:08;26.50;28.80
80258;DHT22;69565;37.974;23.708;2023-04-25T07:15:34;26.60;28.80
80258;DHT22;69565;37.974;23.708;2023-04-25T07:18:00;26.70;28.70
80258;DHT22;69565;37.974;23.708;2023-04-25T07:20:25;26.70;28.70
80258;DHT22;69565;37.974;23.708;2023-04-25T07:22:53;26.70;28.80
80258;DHT22;69565;37.974;23.708;2023-04-25T07:25:19;26.70;28.90
80258;DHT22;69565;37.974;23.708;2023-04-25T07:27:45;26.80;28.90
80258;DHT22;69565;37.974;23.708;2023-04-25T07:30:11;26.90;28.90
80258;DHT22;69565;37.974;23.708;2023-04-25T07:32:38;27.00;28.90
80258;DHT22;69565;37.974;23.708;2023-04-25T07:35:04;27.00;28.90
80258;DHT22;69565;37.974;23.708;2023-04-25T07:37:30;27.00;28.90
80258;DHT22;69565;37.974;23.708;2023-04-25T07:39:55;27.10;29.00
80258;DHT22;69565;37.974;23.708;2023-04-25T07:42:21;27.10;29.00
80258;DHT22;69565;37.974;23.708;2023-04-25T07:44:47;27.10;28.80
80258;DHT22;69565;37.974;23.708;2023-04-25T07:47:12;27.10;28.50
80258;DHT22;69565;37.974;23.708;2023-04-25T07:49:39;27.00;28.60
80258;DHT22;69565;37.974;23.708;2023-04-25T07:52:06;27.00;28.80
80258;DHT22;69565;37.974;23.708;2023-04-25T07:54:32;26.90;28.90
80258;DHT22;69565;37.974;23.708;2023-04-25T07:56:58;26.80;29.00
80258;DHT22;69565;37.974;23.708;2023-04-25T07:59:24;26.80;29.10
80258;DHT22;69565;37.974;23.708;2023-04-25T08:01:50;26.80;29.20
80258;DHT22;69565;37.974;23.708;2023-04-25T08:04:16;26.80;29.30
80258;DHT22;69565;37.974;23.708;2023-04-25T08:06:42;26.80;29.30
80258;DHT22;69565;37.974;23.708;2023-04-25T08:09:08;26.70;29.40
80258;DHT22;69565;37.974;23.708;2023-04-25T08:11:35;26.70;29.40
80258;DHT22;69565;37.974;23.708;2023-04-25T08:14:01;26.70;29.50
80258;DHT22;69565;37.974;23.708;2023-04-25T08:16:27;26.70;29.50
80258;DHT22;69565;37.974;23.708;2023-04-25T08:18:53;26.70;29.50
80258;DHT22;69565;37.974;23.708;2023-04-25T08:21:19;26.70;29.50
80258;DHT22;69565;37.974;23.708;2023-04-25T08:23:45;26.70;29.50
80258;DHT22;69565;37.974;23.708;2023-04-25T08:26:11;26.70;29.50
80258;DHT22;69565;37.974;23.708;2023-04-25T08:28:37;26.70;29.50
80258;DHT22;69565;37.974;23.708;2023-04-25T08:31:03;26.70;29.50
80258;DHT22;69565;37.974;23.708;2023-04-25T08:33:28;26.70;29.50
80258;DHT22;69565;37.974;23.708;2023-04-25T08:35:55;26.70;29.50
80258;DHT22;69565;37.974;23.708;2023-04-25T08:38:21;26.70;29.40
80258;DHT22;69565;37.974;23.708;2023-04-25T08:40:50;26.70;29.50
80258;DHT22;69565;37.974;23.708;2023-04-25T08:43:19;26.70;29.40
80258;DHT22;69565;37.974;23.708;2023-04-25T08:45:45;26.70;29.40
80258;DHT22;69565;37.974;23.708;2023-04-25T08:48:16;26.70;29.30
80258;DHT22;69565;37.974;23.708;2023-04-25T08:50:53;26.70;29.30
80258;DHT22;69565;37.974;23.708;2023-04-25T08:53:27;26.70;29.40
80258;DHT22;69565;37.974;23.708;2023-04-25T08:55:57;26.70;29.50
80258;DHT22;69565;37.974;23.708;2023-04-25T08:58:24;26.70;29.90
80258;DHT22;69565;37.974;23.708;2023-04-25T09:00:51;26.60;29.60
80258;DHT22;69565;37.974;23.708;2023-04-25T09:03:19;26.60;29.60
80258;DHT22;69565;37.974;23.708;2023-04-25T09:05:45;26.60;29.50
80258;DHT22;69565;37.974;23.708;2023-04-25T09:08:11;26.60;29.50
80258;DHT22;69565;37.974;23.708;2023-04-25T09:10:38;26.60;29.50
80258;DHT22;69565;37.974;23.708;2023-04-25T09:13:11;26.60;29.50
80258;DHT22;69565;37.974;23.708;2023-04-25T09:15:51;26.60;29.60
80258;DHT22;69565;37.974;23.708;2023-04-25T09:20:58;26.50;29.60
80258;DHT22;69565;37.974;23.708;2023-04-25T09:23:29;26.50;29.60
80258;DHT22;69565;37.974;23.708;2023-04-25T09:25:55;26.50;29.60
80258;DHT22;69565;37.974;23.708;2023-04-25T09:28:25;26.50;29.50
80258;DHT22;69565;37.974;23.708;2023-04-25T09:30:58;26.50;29.50
80258;DHT22;69565;37.974;23.708;2023-04-25T09:33:28;26.50;29.50
80258;DHT22;69565;37.974;23.708;2023-04-25T09:36:01;26.50;29.60
80258;DHT22;69565;37.974;23.708;2023-04-25T09:38:27;26.40;29.70
80258;DHT22;69565;37.974;23.708;2023-04-25T09:40:55;26.40;29.70
80258;DHT22;69565;37.974;23.708;2023-04-25T09:43:24;26.40;29.80
80258;DHT22;69565;37.974;23.708;2023-04-25T09:45:52;26.40;29.90
80258;DHT22;69565;37.974;23.708;2023-04-25T09:48:20;26.40;30.00
80258;DHT22;69565;37.974;23.708;2023-04-25T09:53:37;26.50;30.00
80258;DHT22;69565;37.974;23.708;2023-04-25T09:56:05;26.60;29.80
80258;DHT22;69565;37.974;23.708;2023-04-25T09:58:33;26.50;29.70
80258;DHT22;69565;37.974;23.708;2023-04-25T10:01:04;26.50;29.60
80258;DHT22;69565;37.974;23.708;2023-04-25T10:03:36;26.50;29.60
80258;DHT22;69565;37.974;23.708;2023-04-25T10:06:04;26.50;29.60
80258;DHT22;69565;37.974;23.708;2023-04-25T10:08:33;26.50;29.60
80258;DHT22;69565;37.974;23.708;2023-04-25T10:11:01;26.50;29.70
80258;DHT22;69565;37.974;23.708;2023-04-25T10:13:29;26.50;29.70
80258;DHT22;69565;37.974;23.708;2023-04-25T10:15:57;26.50;29.80
80258;DHT22;69565;37.974;23.708;2023-04-25T10:18:28;26.50;29.90
80258;DHT22;69565;37.974;23.708;2023-04-25T10:21:00;26.50;29.90
80258;DHT22;69565;37.974;23.708;2023-04-25T10:23:26;26.50;29.90
80258;DHT22;69565;37.974;23.708;2023-04-25T10:25:53;26.50;29.90
80258;DHT22;69565;37.974;23.708;2023-04-25T10:28:20;26.50;29.90
80258;DHT22;69565;37.974;23.708;2023-04-25T10:31:03;26.50;29.90
80258;DHT22;69565;37.974;23.708;2023-04-25T10:33:36;26.40;29.80
80258;DHT22;69565;37.974;23.708;2023-04-25T10:36:12;26.40;29.70
80258;DHT22;69565;37.974;23.708;2023-04-25T10:38:39;26.40;29.60
80258;DHT22;69565;37.974;23.708;2023-04-25T10:41:08;26.40;29.60
80258;DHT22;69565;37.974;23.708;2023-04-25T10:43:35;26.40;29.60
80258;DHT22;69565;37.974;23.708;2023-04-25T10:46:12;26.40;29.60
80258;DHT22;69565;37.974;23.708;2023-04-25T10:48:50;26.40;29.40
80258;DHT22;69565;37.974;23.708;2023-04-25T10:56:22;26.30;30.20
80258;DHT22;69565;37.974;23.708;2023-04-25T10:58:49;26.40;29.60
80258;DHT22;69565;37.974;23.708;2023-04-25T11:01:25;26.40;29.60
80258;DHT22;69565;37.974;23.708;2023-04-25T11:03:57;26.40;29.60
80258;DHT22;69565;37.974;23.708;2023-04-25T11:09:01;26.40;29.60
80258;DHT22;69565;37.974;23.708;2023-04-25T11:11:28;26.40;29.50
80258;DHT22;69565;37.974;23.708;2023-04-25T11:13:54;26.40;29.50
80258;DHT22;69565;37.974;23.708;2023-04-25T11:16:24;26.30;29.40
80258;DHT22;69565;37.974;23.708;2023-04-25T11:18:50;26.30;29.50
80258;DHT22;69565;37.974;23.708;2023-04-25T11:21:16;26.30;29.40
80258;DHT22;69565;37.974;23.708;2023-04-25T11:23:45;26.30;29.40
80258;DHT22;69565;37.974;23.708;2023-04-25T11:26:13;26.30;29.40
80258;DHT22;69565;37.974;23.708;2023-04-25T11:28:39;26.30;29.40
80258;DHT22;69565;37.974;23.708;2023-04-25T11:31:05;26.30;29.40
80258;DHT22;69565;37.974;23.708;2023-04-25T11:33:31;26.40;29.40
80258;DHT22;69565;37.974;23.708;2023-04-25T11:35:56;26.40;29.20
80258;DHT22;69565;37.974;23.708;2023-04-25T11:38:23;26.40;29.20
80258;DHT22;69565;37.974;23.708;2023-04-25T11:40:53;26.40;29.10
80258;DHT22;69565;37.974;23.708;2023-04-25T11:43:22;26.40;29.10
80258;DHT22;69565;37.974;23.708;2023-04-25T11:45:49;26.40;29.00
80258;DHT22;69565;37.974;23.708;2023-04-25T11:48:17;26.40;29.00
80258;DHT22;69565;37.974;23.708;2023-04-25T11:50:43;26.40;29.00
80258;DHT22;69565;37.974;23.708;2023-04-25T11:53:08;26.30;29.00
80258;DHT22;69565;37.974;23.708;2023-04-25T11:55:36;26.30;28.90
80258;DHT22;69565;37.974;23.708;2023-04-25T11:58:03;26.40;29.00
80258;DHT22;69565;37.974;23.708;2023-04-25T12:00:29;26.40;29.10
80258;DHT22;69565;37.974;23.708;2023-04-25T12:02:56;26.40;29.20
80258;DHT22;69565;37.974;23.708;2023-04-25T12:05:27;26.50;29.30
80258;DHT22;69565;37.974;23.708;2023-04-25T12:07:54;26.50;29.40
80258;DHT22;69565;37.974;23.708;2023-04-25T12:10:20;26.50;29.40
80258;DHT22;69565;37.974;23.708;2023-04-25T12:12:47;26.50;29.40
80258;DHT22;69565;37.974;23.708;2023-04-25T12:15:25;26.50;30.00
80258;DHT22;69565;37.974;23.708;2023-04-25T12:17:53;26.50;29.40
80258;DHT22;69565;37.974;23.708;2023-04-25T12:20:23;26.50;29.40
80258;DHT22;69565;37.974;23.708;2023-04-25T12:22:52;26.50;29.30
80258;DHT22;69565;37.974;23.708;2023-04-25T12:25:37;26.50;29.30
80258;DHT22;69565;37.974;23.708;2023-04-25T12:28:19;26.50;28.90
80258;DHT22;69565;37.974;23.708;2023-04-25T12:33:21;26.50;28.90
80258;DHT22;69565;37.974;23.708;2023-04-25T12:35:47;26.50;29.00
80258;DHT22;69565;37.974;23.708;2023-04-25T12:38:30;26.50;29.10
80258;DHT22;69565;37.974;23.708;2023-04-25T12:40:57;26.50;29.20
80258;DHT22;69565;37.974;23.708;2023-04-25T12:43:23;26.50;29.30
80258;DHT22;69565;37.974;23.708;2023-04-25T12:45:53;26.50;29.40
80258;DHT22;69565;37.974;23.708;2023-04-25T12:48:20;26.60;29.50
80258;DHT22;69565;37.974;23.708;2023-04-25T12:50:47;26.60;29.60
80258;DHT22;69565;37.974;23.708;2023-04-25T12:53:20;26.60;29.60
80258;DHT22;69565;37.974;23.708;2023-04-25T12:55:46;26.60;29.70
80258;DHT22;69565;37.974;23.708;2023-04-25T12:58:13;26.60;29.70
80258;DHT22;69565;37.974;23.708;2023-04-25T13:00:39;26.60;29.70
80258;DHT22;69565;37.974;23.708;2023-04-25T13:03:05;26.60;29.70
80258;DHT22;69565;37.974;23.708;2023-04-25T13:05:33;26.60;29.70
80258;DHT22;69565;37.974;23.708;2023-04-25T13:07:59;26.60;29.80
80258;DHT22;69565;37.974;23.708;2023-04-25T13:10:25;26.60;29.90
80258;DHT22;69565;37.974;23.708;2023-04-25T13:12:51;26.60;29.90
80258;DHT22;69565;37.974;23.708;2023-04-25T13:15:16;26.60;29.90
80258;DHT22;69565;37.974;23.708;2023-04-25T13:17:42;26.60;29.80
80258;DHT22;69565;37.974;23.708;2023-04-25T13:20:09;26.50;29.80
80258;DHT22;69565;37.974;23.708;2023-04-25T13:22:35;26.50;29.80
80258;DHT22;69565;37.974;23.708;2023-04-25T13:25:06;26.60;29.70
80258;DHT22;69565;37.974;23.708;2023-04-25T13:27:32;26.50;29.60
80258;DHT22;69565;37.974;23.708;2023-04-25T13:30:00;26.50;29.70
80258;DHT22;69565;37.974;23.708;2023-04-25T13:32:26;26.50;29.70
80258;DHT22;69565;37.974;23.708;2023-04-25T13:34:52;26.40;29.60
80258;DHT22;69565;37.974;23.708;2023-04-25T13:37:18;26.40;29.50
80258;DHT22;69565;37.974;23.708;2023-04-25T13:39:44;26.50;29.50
80258;DHT22;69565;37.974;23.708;2023-04-25T13:42:10;26.40;29.50
80258;DHT22;69565;37.974;23.708;2023-04-25T13:44:36;26.40;29.40
80258;DHT22;69565;37.974;23.708;2023-04-25T13:47:02;26.40;29.40
80258;DHT22;69565;37.974;23.708;2023-04-25T13:49:28;26.40;29.40
80258;DHT22;69565;37.974;23.708;2023-04-25T13:51:54;26.40;29.40
80258;DHT22;69565;37.974;23.708;2023-04-25T13:54:19;26.40;29.40
80258;DHT22;69565;37.974;23.708;2023-04-25T13:56:45;26.40;29.40
80258;DHT22;69565;37.974;23.708;2023-04-25T13:59:11;26.30;29.30
80258;DHT22;69565;37.974;23.708;2023-04-25T14:01:37;26.30;29.20
80258;DHT22;69565;37.974;23.708;2023-04-25T14:04:03;26.30;29.30
80258;DHT22;69565;37.974;23.708;2023-04-25T14:06:32;26.30;29.20
80258;DHT22;69565;37.974;23.708;2023-04-25T14:08:58;26.30;29.20
80258;DHT22;69565;37.974;23.708;2023-04-25T14:11:26;26.20;29.10
80258;DHT22;69565;37.974;23.708;2023-04-25T14:13:52;26.20;29.20
80258;DHT22;69565;37.974;23.708;2023-04-25T14:16:18;26.20;29.20
80258;DHT22;69565;37.974;23.708;2023-04-25T14:18:44;26.20;29.30
80258;DHT22;69565;37.974;23.708;2023-04-25T14:21:09;26.20;29.40
80258;DHT22;69565;37.974;23.708;2023-04-25T14:23:36;26.20;29.50
80258;DHT22;69565;37.974;23.708;2023-04-25T14:26:01;26.20;29.40
80258;DHT22;69565;37.974;23.708;2023-04-25T14:28:27;26.20;29.40
80258;DHT22;69565;37.974;23.708;2023-04-25T14:30:53;26.10;29.50
80258;DHT22;69565;37.974;23.708;2023-04-25T14:33:19;26.10;29.60
80258;DHT22;69565;37.974;23.708;2023-04-25T14:35:44;26.10;29.60
80258;DHT22;69565;37.974;23.708;2023-04-25T14:38:10;26.10;29.70
80258;DHT22;69565;37.974;23.708;2023-04-25T14:40:36;26.10;29.70
80258;DHT22;69565;37.974;23.708;2023-04-25T14:43:03;26.10;29.80
80258;DHT22;69565;37.974;23.708;2023-04-25T14:45:29;26.10;29.80
80258;DHT22;69565;37.974;23.708;2023-04-25T14:47:55;26.10;29.80
80258;DHT22;69565;37.974;23.708;2023-04-25T14:50:21;26.10;29.90
80258;DHT22;69565;37.974;23.708;2023-04-25T14:52:47;26.00;29.80
80258;DHT22;69565;37.974;23.708;2023-04-25T14:55:13;26.00;29.90
80258;DHT22;69565;37.974;23.708;2023-04-25T14:57:39;26.00;30.00
80258;DHT22;69565;37.974;23.708;2023-04-25T15:00:05;26.00;30.00
80258;DHT22;69565;37.974;23.708;2023-04-25T15:02:35;26.00;30.00
80258;DHT22;69565;37.974;23.708;2023-04-25T15:05:01;26.00;30.00
80258;DHT22;69565;37.974;23.708;2023-04-25T15:07:28;26.00;30.20
80258;DHT22;69565;37.974;23.708;2023-04-25T15:09:54;26.00;31.30
80258;DHT22;69565;37.974;23.708;2023-04-25T15:12:21;26.00;30.30
80258;DHT22;69565;37.974;23.708;2023-04-25T15:14:47;25.90;30.20
80258;DHT22;69565;37.974;23.708;2023-04-25T15:17:13;25.90;30.30
80258;DHT22;69565;37.974;23.708;2023-04-25T15:19:40;25.90;30.20
80258;DHT22;69565;37.974;23.708;2023-04-25T15:22:06;25.90;30.20
80258;DHT22;69565;37.974;23.708;2023-04-25T15:24:32;25.90;30.30
80258;DHT22;69565;37.974;23.708;2023-04-25T15:26:58;25.90;30.30
80258;DHT22;69565;37.974;23.708;2023-04-25T15:29:24;25.90;31.50